Time;durP1;ratioP1;P1;durP2;ratioP2;P2;SDS_P1;SDS_P2;PMS_P1;PMS_P2;Temp;Humidity;BMP_temperature;BMP_pressure;BME280_temperature;BME280_humidity;BME280_pressure;Samples;Min_cycle;Max_cycle;Signal;HPM_P1;HPM_P2
2022/09/26 00:00:41;;;;;;;13.60;3.30;;;;;;;16.37;77.07;100708.28;5085910;28;20337;-60
2022/09/26 00:03:27;;;;;;;12.80;3.77;;;;;;;16.32;77.14;100699.63;5086135;28;20282;-60
2022/09/26 00:06:25;;;;;;;14.47;3.93;;;;;;;16.14;78.25;100664.19;5085026;28;20519;-60
2022/09/26 00:12:03;;;;;;;13.03;4.27;;;;;;;16.83;79.27;100683.91;5085455;28;20298;-60
2022/09/26 00:14:36;;;;;;;12.27;4.07;;;;;;;17.04;80.56;100688.41;5085817;28;20283;-60
2022/09/26 00:17:25;;;;;;;13.17;5.17;;;;;;;17.05;81.69;100684.88;5072071;28;20406;-60
2022/09/26 00:20:02;;;;;;;40.13;6.90;;;;;;;17.00;82.46;100684.16;5065386;28;20382;-60
2022/09/26 00:22:48;;;;;;;47.33;8.37;;;;;;;17.32;83.19;100671.53;5044986;28;20288;-60
2022/09/26 00:25:28;;;;;;;49.33;8.30;;;;;;;17.50;82.23;100660.28;5045931;28;20288;-62
2022/09/26 00:28:13;;;;;;;28.13;5.93;;;;;;;17.80;81.67;100665.31;4999570;28;20351;-61
2022/09/26 00:31:11;;;;;;;14.67;4.67;;;;;;;17.70;80.27;100651.56;5045748;28;20288;-59
2022/09/26 00:34:11;;;;;;;20.23;4.53;;;;;;;17.81;80.88;100669.66;5049447;28;20300;-62
2022/09/26 00:37:05;;;;;;;25.60;5.33;;;;;;;18.07;80.66;100666.84;5054785;28;20315;-61
2022/09/26 00:40:05;;;;;;;22.27;4.53;;;;;;;18.26;79.23;100650.19;5047942;28;20300;-60
2022/09/26 00:43:25;;;;;;;22.60;4.40;;;;;;;18.38;79.03;100654.97;5014720;28;20351;-60
2022/09/26 00:46:11;;;;;;;17.10;4.30;;;;;;;18.32;78.38;100623.47;5044066;28;20285;-59
2022/09/26 00:49:22;;;;;;;14.97;4.23;;;;;;;18.48;77.77;100651.00;5045420;28;20296;-61
2022/09/26 00:52:23;;;;;;;20.53;5.70;;;;;;;18.41;77.54;100628.38;5043471;28;20303;-62
2022/09/26 00:55:22;;;;;;;19.17;5.13;;;;;;;18.62;76.79;100631.00;5015460;28;20288;-60
2022/09/26 00:58:18;;;;;;;18.17;4.73;;;;;;;18.52;76.98;100610.25;5045394;28;20532;-61
2022/09/26 01:01:12;;;;;;;15.77;4.80;;;;;;;18.56;76.93;100618.06;4994904;28;20292;-60
2022/09/26 01:03:53;;;;;;;20.20;4.40;;;;;;;18.60;76.79;100617.00;5033032;28;20307;-62
2022/09/26 01:07:19;;;;;;;22.17;4.97;;;;;;;18.75;76.95;100611.03;5019840;28;20370;-62
2022/09/26 01:10:05;;;;;;;15.17;4.30;;;;;;;18.81;75.22;100612.56;5072126;28;20827;-62
2022/09/26 01:12:56;;;;;;;;;;;;;;;18.79;74.92;100607.34;4997128;28;20318;-61
2022/09/26 01:15:39;;;;;;;13.93;3.63;;;;;;;18.76;75.17;100602.19;5011717;28;20016;-61
2022/09/26 01:18:17;;;;;;;14.97;3.67;;;;;;;18.66;74.67;100612.28;4986347;28;20348;-63
2022/09/26 01:21:22;;;;;;;19.52;3.58;;;;;;;18.23;74.69;100602.72;5009410;28;20482;-61
2022/09/26 01:24:41;;;;;;;13.97;4.03;;;;;;;18.15;76.01;100610.13;5009862;28;20054;-63
2022/09/26 01:27:55;;;;;;;16.73;3.70;;;;;;;18.34;76.04;100595.16;4985469;28;20299;-62
2022/09/26 01:31:10;;;;;;;9.30;3.30;;;;;;;18.58;76.09;100587.97;5009460;28;20497;-61
2022/09/26 01:34:25;;;;;;;13.70;3.80;;;;;;;18.66;74.13;100592.91;5011019;28;20324;-62
2022/09/26 01:37:22;;;;;;;27.30;3.90;;;;;;;18.72;74.75;100585.56;5008301;28;20317;-62
2022/09/26 01:40:08;;;;;;;;;;;;;;;18.94;73.83;100592.53;5009851;28;20293;-63
2022/09/26 01:46:13;;;;;;;13.20;3.90;;;;;;;19.13;74.42;100581.97;5008673;28;20192;-62
2022/09/26 01:48:51;;;;;;;12.63;3.53;;;;;;;19.27;73.91;100571.59;5007324;28;20327;-62
2022/09/26 01:51:55;;;;;;;8.90;3.00;;;;;;;19.31;73.35;100575.78;5068572;28;20295;-61
2022/09/26 01:54:52;;;;;;;8.43;3.37;;;;;;;19.39;73.43;100563.06;5069830;28;20327;-62
2022/09/26 01:57:36;;;;;;;14.10;3.23;;;;;;;19.51;72.25;100566.88;5038956;28;20321;-61
2022/09/26 02:00:13;;;;;;;9.53;3.10;;;;;;;19.48;71.64;100547.63;5070848;28;20465;-62
2022/09/26 02:02:56;;;;;;;8.70;2.70;;;;;;;19.26;70.35;100511.56;5031737;28;20284;-62
2022/09/26 02:05:56;;;;;;;11.23;3.30;;;;;;;19.53;70.67;100556.22;5068809;28;20355;-62
2022/09/26 02:08:48;;;;;;;8.98;2.65;;;;;;;19.31;69.27;100525.44;5067881;28;20486;-62
2022/09/26 02:11:31;;;;;;;8.40;3.37;;;;;;;19.50;69.67;100545.78;5069379;28;20044;-63
2022/09/26 02:14:22;;;;;;;30.93;4.20;;;;;;;19.51;70.08;100547.47;5067592;28;20329;-61
2022/09/26 02:17:01;;;;;;;20.87;3.30;;;;;;;19.29;69.54;100498.16;5026594;28;20295;-62
2022/09/26 02:20:04;;;;;;;9.93;3.00;;;;;;;19.61;70.20;100543.44;5070011;28;20593;-63
2022/09/26 02:23:07;;;;;;;10.63;2.73;;;;;;;19.78;70.51;100542.63;5069676;28;20325;-61
2022/09/26 02:26:05;;;;;;;11.80;2.90;;;;;;;19.62;68.54;100486.84;5067135;28;20284;-62
2022/09/26 02:28:44;;;;;;;8.47;2.73;;;;;;;19.89;67.66;100536.78;5070620;28;20283;-62
2022/09/26 02:31:35;;;;;;;10.20;2.97;;;;;;;19.86;67.67;100535.13;5068364;28;20351;-63
2022/09/26 02:34:16;;;;;;;6.53;2.87;;;;;;;19.87;67.96;100528.91;5069007;28;20315;-62
2022/09/26 02:36:59;;;;;;;8.25;2.80;;;;;;;19.78;67.55;100524.91;5069580;28;20681;-62
2022/09/26 02:39:48;;;;;;;5.70;2.77;;;;;;;19.89;66.85;100527.03;5069857;28;20067;-61
2022/09/26 02:42:49;;;;;;;6.57;2.53;;;;;;;19.96;66.93;100530.22;5069013;28;20276;-62
2022/09/26 02:45:43;;;;;;;47.73;5.10;;;;;;;20.06;67.45;100527.97;5070539;28;20299;-62
2022/09/26 02:48:45;;;;;;;4.20;2.47;;;;;;;19.78;65.85;100482.50;5069664;28;20291;-63
2022/09/26 02:51:38;;;;;;;5.97;2.70;;;;;;;19.96;66.47;100506.38;5069373;28;20288;-61
2022/09/26 02:54:50;;;;;;;5.87;2.70;;;;;;;20.09;66.04;100523.34;5069073;28;20128;-62
2022/09/26 02:57:52;;;;;;;9.47;2.90;;;;;;;19.95;66.21;100504.66;5068845;28;20373;-65
2022/09/26 03:00:32;;;;;;;12.07;2.80;;;;;;;20.15;66.23;100512.44;5069614;28;20284;-61
2022/09/26 03:03:12;;;;;;;6.43;2.25;;;;;;;20.26;65.90;100504.75;5066687;28;20309;-63
2022/09/26 03:06:08;;;;;;;8.47;3.50;;;;;;;20.43;66.95;100500.34;5070380;28;20049;-62
2022/09/26 03:08:52;;;;;;;9.27;2.80;;;;;;;20.49;65.67;100500.00;5073117;28;20314;-62
2022/09/26 03:11:39;;;;;;;16.97;3.03;;;;;;;20.43;65.43;100487.09;5075000;28;20733;-63
2022/09/26 03:14:58;;;;;;;6.60;2.70;;;;;;;20.44;65.65;100496.75;5073110;28;20512;-62
2022/09/26 03:17:47;;;;;;;5.87;2.63;;;;;;;19.80;65.57;100413.50;5073687;28;20308;-62
2022/09/26 03:20:26;;;;;;;11.25;3.10;;;;;;;20.20;65.21;100493.63;5032163;28;20650;-64
2022/09/26 03:23:13;;;;;;;76.77;6.23;;;;;;;20.24;66.32;100484.53;5071923;28;20056;-62
2022/09/26 03:26:11;;;;;;;6.17;3.00;;;;;;;20.11;66.02;100489.66;5058515;28;20279;-63
2022/09/26 03:28:53;;;;;;;10.50;3.30;;;;;;;19.91;66.60;100476.56;5070522;28;20279;-62
2022/09/26 03:31:31;;;;;;;17.43;3.23;;;;;;;19.70;67.00;100482.03;5073981;28;20291;-63
2022/09/26 03:34:19;;;;;;;3.57;2.23;;;;;;;19.93;66.72;100474.69;5071968;28;20487;-62
2022/09/26 03:36:53;;;;;;;6.07;2.80;;;;;;;20.07;66.80;100471.31;5068911;28;20340;-62
2022/09/26 03:39:35;;;;;;;7.63;2.70;;;;;;;20.08;66.61;100473.03;5073064;28;20292;-62
2022/09/26 03:42:21;;;;;;;18.97;3.40;;;;;;;19.86;66.21;100441.47;5071490;28;20295;-63
2022/09/26 03:45:06;;;;;;;28.83;4.50;;;;;;;20.03;66.14;100465.31;5073531;28;21183;-63
2022/09/26 03:54:35;;;;;;;31.33;3.77;;;;;;;20.28;67.66;100469.34;5072370;28;20324;-62
2022/09/26 03:57:15;;;;;;;17.37;3.27;;;;;;;20.43;67.28;100448.13;5074021;28;20286;-62
2022/09/26 03:59:57;;;;;;;51.80;8.00;;;;;;;20.51;67.02;100455.66;5073202;28;20289;-62
2022/09/26 04:02:40;;;;;;;11.83;3.27;;;;;;;20.21;66.37;100464.34;5069469;28;20324;-62
2022/09/26 04:05:34;;;;;;;12.90;2.83;;;;;;;20.18;67.38;100448.59;5082558;28;20526;-63
2022/09/26 04:08:12;;;;;;;10.87;3.10;;;;;;;20.21;67.14;100448.41;5082503;28;20267;-63
2022/09/26 04:10:56;;;;;;;22.33;3.70;;;;;;;20.20;67.36;100449.38;5082012;28;20283;-63
2022/09/26 04:13:43;;;;;;;6.77;2.60;;;;;;;20.05;67.34;100447.53;5083388;28;20287;-62
2022/09/26 04:19:27;;;;;;;7.07;2.50;;;;;;;19.90;67.25;100437.75;5080867;28;20364;-63
2022/09/26 04:22:10;;;;;;;;;;;;;;;20.02;67.85;100437.09;5054353;28;20344;-64
2022/09/26 04:25:05;;;;;;;8.53;2.73;;;;;;;20.15;67.86;100435.50;5081438;28;19924;-63
2022/09/26 04:28:02;;;;;;;5.47;2.50;;;;;;;20.18;67.68;100443.28;5082270;28;20278;-62
2022/09/26 04:30:38;;;;;;;7.97;2.90;;;;;;;20.22;67.75;100434.22;5082876;28;20282;-63
2022/09/26 04:33:18;;;;;;;9.90;3.20;;;;;;;20.21;67.86;100429.84;5081958;28;20294;-63
2022/09/26 04:36:14;;;;;;;11.17;2.93;;;;;;;20.17;67.68;100430.13;5082158;28;20362;-62
2022/09/26 04:39:16;;;;;;;;;;;;;;;;;;;;;
2022/09/26 04:42:05;;;;;;;12.43;3.00;;;;;;;19.94;69.07;100441.94;5008589;28;20323;-62
2022/09/26 04:44:52;;;;;;;12.53;4.17;;;;;;;19.90;68.63;100438.59;5039698;28;20295;-63
2022/09/26 04:47:37;;;;;;;8.07;2.80;;;;;;;19.92;69.19;100431.41;5038915;28;20296;-62
2022/09/26 04:50:23;;;;;;;19.13;3.60;;;;;;;19.93;69.20;100434.91;4960427;28;20279;-63
2022/09/26 04:53:06;;;;;;;20.97;3.50;;;;;;;19.91;69.30;100419.06;5040415;28;20278;-61
2022/09/26 04:58:53;;;;;;;9.03;2.87;;;;;;;19.99;69.35;100421.31;5040263;28;20300;-62
2022/09/26 05:01:33;;;;;;;13.07;3.30;;;;;;;20.03;69.92;100417.56;5013919;28;20615;-63
2022/09/26 05:04:23;;;;;;;9.15;2.80;;;;;;;20.01;69.09;100419.44;5000027;28;20269;-62
2022/09/26 05:10:03;;;;;;;6.33;3.20;;;;;;;19.95;69.74;100418.00;5068280;28;20406;-62
2022/09/26 05:12:52;;;;;;;11.87;3.50;;;;;;;19.87;70.00;100411.34;5022114;28;20295;-63
2022/09/26 05:15:37;;;;;;;7.83;2.60;;;;;;;19.63;69.93;100371.91;5070784;28;20278;-63
2022/09/26 05:18:17;;;;;;;9.40;3.20;;;;;;;19.73;70.64;100409.44;5069917;28;20782;-63
2022/09/26 05:20:52;;;;;;;11.77;3.30;;;;;;;19.66;71.17;100392.97;5065623;28;20307;-62
2022/09/26 05:26:30;;;;;;;12.93;3.90;;;;;;;19.49;71.17;100387.66;5044047;28;20296;-63
2022/09/26 05:29:37;;;;;;;13.00;3.30;;;;;;;19.42;70.82;100404.81;5070937;28;20045;-62
2022/09/26 05:32:14;;;;;;;9.93;3.03;;;;;;;19.38;71.74;100394.38;5010304;28;20300;-62
2022/09/26 05:34:54;;;;;;;12.53;3.53;;;;;;;19.32;72.10;100384.09;4947002;28;20339;-64
2022/09/26 05:37:37;;;;;;;11.63;3.35;;;;;;;19.21;71.89;100375.84;5009825;28;20293;-63
2022/09/26 05:43:16;;;;;;;11.07;3.23;;;;;;;19.19;72.38;100390.94;5002511;28;20320;-63
2022/09/26 05:46:05;;;;;;;23.53;3.87;;;;;;;19.18;73.14;100378.63;5008873;28;20389;-63
2022/09/26 05:48:49;;;;;;;8.83;3.40;;;;;;;19.23;73.40;100384.56;4993814;28;20290;-61
2022/09/26 05:51:43;;;;;;;;;;;;;;;19.19;72.80;100383.00;5010277;28;20282;-63
2022/09/26 05:54:26;;;;;;;16.47;3.10;;;;;;;19.10;73.30;100378.19;4994746;28;20221;-61
2022/09/26 05:57:07;;;;;;;9.17;2.80;;;;;;;19.03;73.77;100376.75;5054568;28;20287;-62
2022/09/26 05:59:47;;;;;;;15.37;3.50;;;;;;;18.89;74.07;100365.03;5038540;28;20314;-63
2022/09/26 06:06:08;;;;;;;;;;;;;;;18.72;75.59;100380.84;5008982;28;20316;-62
2022/09/26 06:08:57;;;;;;;20.73;3.80;;;;;;;18.21;76.65;100300.41;5008775;28;19917;-62
2022/09/26 06:11:46;;;;;;;28.53;4.10;;;;;;;18.59;77.32;100382.38;5009736;28;20296;-62
2022/09/26 06:14:26;;;;;;;11.53;3.80;;;;;;;18.48;77.83;100391.69;5009360;28;20345;-63
2022/09/26 06:17:26;;;;;;;12.47;3.93;;;;;;;18.32;78.29;100374.81;5009628;28;20320;-62
2022/09/26 06:20:11;;;;;;;22.10;4.40;;;;;;;18.22;79.16;100373.53;5010771;28;20301;-63
2022/09/26 06:22:48;;;;;;;33.77;4.80;;;;;;;18.13;79.77;100381.91;5009153;28;20058;-62
2022/09/26 06:25:28;;;;;;;29.70;5.07;;;;;;;17.96;80.32;100377.38;5009541;28;20290;-62
2022/09/26 06:28:28;;;;;;;20.73;4.40;;;;;;;17.75;81.22;100373.88;5009244;28;20508;-61
2022/09/26 06:31:12;;;;;;;22.67;5.27;;;;;;;17.64;82.54;100377.84;5009632;28;20293;-64
2022/09/26 06:34:06;;;;;;;16.60;4.13;;;;;;;17.51;82.97;100371.38;5026421;28;20372;-61
2022/09/26 06:40:01;;;;;;;23.93;5.90;;;;;;;17.61;83.98;100375.34;5009175;28;20053;-63
2022/09/26 06:42:51;;;;;;;13.23;4.70;;;;;;;17.71;84.15;100372.28;5051467;28;20283;-62
2022/09/26 06:45:42;;;;;;;10.67;4.87;;;;;;;17.79;84.11;100388.66;5024744;28;20096;-62
2022/09/26 06:48:27;;;;;;;83.60;8.07;;;;;;;17.80;83.99;100378.06;5053953;28;20284;-62
2022/09/26 06:51:17;;;;;;;11.33;4.47;;;;;;;17.77;84.05;100372.00;5036778;28;20360;-62
2022/09/26 06:53:59;;;;;;;11.75;4.15;;;;;;;17.78;84.30;100379.03;5055474;28;20378;-62
2022/09/26 06:56:37;;;;;;;15.97;5.40;;;;;;;17.74;84.16;100373.00;5053490;28;20057;-62
2022/09/26 06:59:28;;;;;;;24.30;5.77;;;;;;;17.66;84.50;100360.13;5053852;28;20311;-62
2022/09/26 07:02:16;;;;;;;15.37;4.23;;;;;;;17.62;84.64;100358.56;5064434;28;20291;-61
2022/09/26 07:05:01;;;;;;;13.60;4.10;;;;;;;17.59;84.75;100348.13;5072920;28;20271;-63
2022/09/26 07:07:49;;;;;;;9.97;4.37;;;;;;;17.21;84.42;100305.75;5071909;28;20307;-62
2022/09/26 07:13:59;;;;;;;12.47;4.30;;;;;;;17.20;83.54;100335.72;5074409;28;20325;-62
2022/09/26 07:19:43;;;;;;;12.63;3.77;;;;;;;17.30;83.33;100343.22;5150574;27;20152;-62
2022/09/26 07:22:23;;;;;;;16.97;3.40;;;;;;;16.65;83.49;100252.69;5130113;28;20298;-62
2022/09/26 07:25:32;;;;;;;;;;;;;;;;;;;;;
2022/09/26 07:28:20;;;;;;;34.03;4.90;;;;;;;17.01;83.29;100351.47;5015048;28;20285;-63
2022/09/26 07:31:08;;;;;;;17.00;3.70;;;;;;;16.86;84.06;100351.25;5128781;28;20288;-62
2022/09/26 07:33:56;;;;;;;13.67;3.20;;;;;;;16.76;84.63;100370.06;5127968;28;20289;-63
2022/09/26 07:37:01;;;;;;;19.73;3.50;;;;;;;16.56;85.28;100359.44;5129316;28;20300;-63
2022/09/26 07:39:50;;;;;;;16.57;4.00;;;;;;;16.48;85.89;100356.25;5129296;28;20290;-63
2022/09/26 07:54:44;;;;;;;19.63;10.07;;;;;;;15.44;88.89;100303.88;5128667;28;20282;-62
2022/09/26 07:57:40;;;;;;;12.43;5.37;;;;;;;15.74;89.54;100374.84;5062362;28;20319;-63
2022/09/26 08:00:30;;;;;;;17.20;4.77;;;;;;;15.64;90.31;100381.31;5093441;28;20319;-63
2022/09/26 08:03:17;;;;;;;17.03;4.57;;;;;;;15.56;90.93;100386.00;5129318;28;20388;-62
2022/09/26 08:05:55;;;;;;;14.00;4.30;;;;;;;15.49;91.38;100391.47;5125311;28;20400;-62
2022/09/26 08:08:59;;;;;;;8.00;3.57;;;;;;;15.38;91.56;100393.63;5069034;28;20353;-62
2022/09/26 08:11:54;;;;;;;9.60;4.10;;;;;;;15.32;91.87;100399.06;5128432;28;20294;-62
2022/09/26 08:14:52;;;;;;;9.90;4.13;;;;;;;15.22;92.26;100409.06;5127407;28;20289;-62
2022/09/26 08:17:42;;;;;;;11.30;4.57;;;;;;;15.13;92.69;100405.88;5128090;28;20339;-63
2022/09/26 08:20:36;;;;;;;14.63;4.50;;;;;;;15.06;93.07;100408.72;5085360;28;20327;-62
2022/09/26 08:23:10;;;;;;;13.30;4.20;;;;;;;15.03;93.23;100419.34;5127113;28;20321;-63
2022/09/26 08:25:49;;;;;;;14.47;4.23;;;;;;;14.96;93.60;100428.34;5085828;28;20289;-62
2022/09/26 08:28:36;;;;;;;11.37;4.47;;;;;;;14.91;94.03;100419.72;5085533;28;20274;-62
2022/09/26 08:31:18;;;;;;;12.60;5.00;;;;;;;14.80;94.26;100412.19;5111592;28;20294;-62
2022/09/26 08:37:09;;;;;;;15.00;4.33;;;;;;;14.71;94.77;100411.59;5056968;28;20312;-62
2022/09/26 08:43:10;;;;;;;11.80;4.10;;;;;;;14.64;95.26;100411.78;5109688;28;20048;-62
2022/09/26 08:49:22;;;;;;;16.67;4.87;;;;;;;14.52;95.47;100427.91;5112503;28;20134;-62
2022/09/26 08:52:01;;;;;;;14.15;4.45;;;;;;;14.46;95.68;100428.94;5114030;28;20327;-63
2022/09/26 08:55:25;;;;;;;11.50;4.73;;;;;;;14.45;95.88;100434.25;5115124;28;20040;-62
2022/09/26 08:58:08;;;;;;;9.23;4.00;;;;;;;14.38;96.20;100419.59;5113765;28;20315;-64
2022/09/26 09:01:12;;;;;;;;;;;;;;;14.40;96.35;100420.38;5113552;28;20294;-62
2022/09/26 09:03:56;;;;;;;9.20;4.03;;;;;;;14.33;96.50;100413.59;5112528;28;19924;-63
2022/09/26 09:06:33;;;;;;;11.20;4.00;;;;;;;14.33;96.57;100406.56;5110780;28;20273;-64
2022/09/26 09:09:19;;;;;;;10.93;3.63;;;;;;;13.99;96.59;100354.13;5113487;28;20296;-63
2022/09/26 09:12:15;;;;;;;8.37;3.90;;;;;;;14.31;96.80;100402.25;5112656;28;20547;-62
2022/09/26 09:15:17;;;;;;;14.40;3.77;;;;;;;14.29;96.72;100410.19;5113063;28;20297;-63
2022/09/26 09:18:29;;;;;;;12.07;3.50;;;;;;;14.27;96.55;100416.38;5111847;28;20313;-62
2022/09/26 09:21:37;;;;;;;10.25;3.60;;;;;;;14.20;96.67;100421.84;5112547;28;20312;-64
2022/09/26 09:24:32;;;;;;;11.63;3.70;;;;;;;14.16;96.71;100425.44;5114416;28;20052;-62
2022/09/26 09:27:22;;;;;;;11.13;3.65;;;;;;;14.15;96.90;100429.00;5111132;28;20296;-65
2022/09/26 09:30:23;;;;;;;14.03;4.67;;;;;;;13.96;96.83;100412.03;5075948;28;20048;-63
2022/09/26 09:33:16;;;;;;;17.27;5.07;;;;;;;14.03;96.67;100429.34;5113231;28;20290;-63
2022/09/26 09:36:20;;;;;;;8.13;3.97;;;;;;;13.97;96.71;100434.75;5066867;28;20307;-62
2022/09/26 09:39:14;;;;;;;12.83;4.50;;;;;;;13.83;96.73;100422.00;5070866;28;20366;-63
2022/09/26 09:41:57;;;;;;;28.80;5.40;;;;;;;13.69;96.79;100403.97;5112800;28;20513;-64
2022/09/26 09:44:55;;;;;;;13.37;4.07;;;;;;;13.82;96.55;100436.88;5113117;28;20063;-63
2022/09/26 09:47:43;;;;;;;13.63;4.70;;;;;;;13.81;96.68;100445.69;5112911;28;20306;-63
2022/09/26 09:50:37;;;;;;;10.10;4.20;;;;;;;13.73;96.74;100439.78;5112260;28;20062;-62
2022/09/26 09:53:38;;;;;;;10.88;4.50;;;;;;;13.48;96.84;100409.78;5112146;28;20051;-63
2022/09/26 09:56:55;;;;;;;15.55;5.30;;;;;;;13.64;96.94;100439.16;5112842;28;20233;-62
2022/09/26 10:00:24;;;;;;;22.98;4.90;;;;;;;13.56;96.97;100426.22;5084062;28;20056;-64
2022/09/26 10:03:23;;;;;;;14.77;4.82;;;;;;;13.28;97.01;100389.31;5113665;28;20338;-64
2022/09/26 10:06:04;;;;;;;11.03;4.23;;;;;;;13.51;97.07;100425.47;5080399;28;20059;-63
2022/09/26 10:09:26;;;;;;;23.77;4.97;;;;;;;13.51;96.63;100423.72;5112318;28;20281;-64
2022/09/26 10:12:29;;;;;;;14.85;4.18;;;;;;;13.44;97.21;100423.91;5066708;28;20282;-63
2022/09/26 10:15:13;;;;;;;14.80;4.95;;;;;;;13.41;97.71;100418.75;5112558;28;20081;-63
2022/09/26 10:18:06;;;;;;;10.85;4.43;;;;;;;13.35;98.02;100418.00;5063377;28;20090;-63
2022/09/26 10:21:16;;;;;;;29.27;5.95;;;;;;;13.33;98.69;100422.44;5110504;28;20048;-62
2022/09/26 10:24:12;;;;;;;16.63;4.55;;;;;;;13.09;98.65;100383.63;5064165;28;20052;-63
2022/09/26 10:27:00;;;;;;;13.90;5.40;;;;;;;13.23;98.80;100409.53;5112361;28;20111;-63
2022/09/26 10:29:42;;;;;;;14.23;5.07;;;;;;;13.27;99.06;100417.31;5112887;28;20085;-63
2022/09/26 10:32:23;;;;;;;10.48;4.40;;;;;;;13.28;98.87;100419.06;5111650;28;20050;-63
2022/09/26 10:35:23;;;;;;;15.15;5.35;;;;;;;13.26;98.67;100412.94;5079826;28;20043;-64
2022/09/26 10:38:10;;;;;;;16.70;4.72;;;;;;;13.16;98.76;100403.59;5112578;28;20071;-63
2022/09/26 10:41:05;;;;;;;13.95;4.43;;;;;;;13.22;98.61;100413.91;5114202;28;20055;-63
2022/09/26 10:43:53;;;;;;;;;;;;;;;13.21;98.65;100422.69;5114893;28;20074;-62
2022/09/26 10:46:46;;;;;;;20.67;5.38;;;;;;;13.06;98.58;100407.34;5112160;28;19915;-63
2022/09/26 10:49:33;;;;;;;15.15;4.63;;;;;;;13.16;98.47;100429.81;5112160;28;20055;-63
2022/09/26 10:52:44;;;;;;;17.50;5.30;;;;;;;13.04;98.62;100411.75;5113079;28;20048;-63
2022/09/26 10:55:24;;;;;;;17.42;5.25;;;;;;;13.03;99.26;100418.75;5112630;28;20052;-62
2022/09/26 10:58:24;;;;;;;18.27;5.32;;;;;;;12.86;99.32;100400.81;5111064;28;20063;-62
2022/09/26 11:01:24;;;;;;;11.45;5.55;;;;;;;12.99;99.31;100418.88;5111856;28;20105;-62
2022/09/26 11:07:33;;;;;;;15.80;5.07;;;;;;;12.88;99.25;100414.75;5109114;28;20098;-63
2022/09/26 11:10:16;;;;;;;17.55;5.65;;;;;;;12.81;99.26;100405.28;5110711;28;20085;-63
2022/09/26 11:13:06;;;;;;;14.27;5.70;;;;;;;12.76;99.63;100415.03;5112481;28;20093;-62
2022/09/26 11:16:01;;;;;;;14.90;6.20;;;;;;;12.37;99.69;100349.47;5081886;28;20083;-62
2022/09/26 11:19:03;;;;;;;19.38;5.50;;;;;;;12.75;99.82;100413.28;5112237;28;20134;-62
2022/09/26 11:21:59;;;;;;;16.23;6.75;;;;;;;12.79;99.64;100409.69;5079933;28;20116;-62
2022/09/26 11:24:50;;;;;;;18.23;6.45;;;;;;;12.70;99.47;100404.66;5051980;28;20056;-62
2022/09/26 11:27:42;;;;;;;19.25;6.40;;;;;;;12.73;99.77;100415.09;5111579;28;20137;-62
2022/09/26 11:30:34;;;;;;;16.00;5.93;;;;;;;12.61;99.93;100389.16;5108251;28;20052;-61
2022/09/26 11:33:22;;;;;;;17.75;6.25;;;;;;;12.72;100.00;100402.88;5070539;28;20099;-62
2022/09/26 11:36:13;;;;;;;15.38;5.82;;;;;;;12.68;100.00;100393.34;5106750;28;20052;-63
2022/09/26 11:38:58;;;;;;;13.68;5.63;;;;;;;12.70;100.00;100404.66;5111786;28;20105;-62
2022/09/26 11:41:52;;;;;;;19.13;6.70;;;;;;;12.59;100.00;100390.94;5110617;28;20422;-62
2022/09/26 11:45:03;;;;;;;21.48;6.10;;;;;;;12.69;100.00;100402.94;5110726;28;20055;-62
2022/09/26 11:48:17;;;;;;;18.90;5.93;;;;;;;12.70;100.00;100399.41;5111713;28;20055;-62
2022/09/26 11:51:11;;;;;;;21.92;6.13;;;;;;;12.72;100.00;100398.47;5111089;28;20142;-62
2022/09/26 11:54:13;;;;;;;16.33;5.65;;;;;;;12.71;100.00;100401.16;5109639;28;20263;-63
2022/09/26 11:57:18;;;;;;;18.38;6.88;;;;;;;12.73;100.00;100399.38;5109351;28;20107;-62
2022/09/26 12:00:23;;;;;;;18.83;5.95;;;;;;;12.71;100.00;100395.91;5082804;28;20040;-62
2022/09/26 12:03:29;;;;;;;19.45;6.35;;;;;;;12.69;100.00;100392.47;5112021;28;20098;-62
2022/09/26 12:06:30;;;;;;;17.13;6.90;;;;;;;12.68;100.00;100381.13;5064742;28;20086;-61
2022/09/26 12:09:57;;;;;;;16.50;5.97;;;;;;;12.22;100.00;100313.16;5115856;28;20062;-61
2022/09/26 12:13:02;;;;;;;20.73;6.18;;;;;;;12.68;100.00;100382.84;5091671;28;20039;-62
2022/09/26 12:16:04;;;;;;;17.65;5.60;;;;;;;12.65;100.00;100380.31;5114694;28;20054;-62
2022/09/26 12:19:09;;;;;;;16.08;6.70;;;;;;;12.46;100.00;100344.03;5115131;28;20111;-62
2022/09/26 12:25:28;;;;;;;21.70;7.70;;;;;;;12.61;100.00;100370.81;5093491;28;20082;-62
2022/09/26 12:31:25;;;;;;;19.67;6.22;;;;;;;12.59;100.00;100364.75;5114440;28;20055;-61
2022/09/26 12:34:30;;;;;;;18.38;6.53;;;;;;;12.60;100.00;100362.06;5070464;28;20051;-61
2022/09/26 12:37:19;;;;;;;17.67;6.43;;;;;;;12.62;100.00;100348.94;5110956;28;20455;-61
2022/09/26 12:40:41;;;;;;;19.67;6.97;;;;;;;12.59;100.00;100349.00;5115799;28;20044;-61
2022/09/26 12:44:04;;;;;;;15.57;6.10;;;;;;;12.69;100.00;100353.13;5116015;28;20052;-62
2022/09/26 12:46:58;;;;;;;18.95;6.57;;;;;;;12.66;100.00;100356.69;5080333;28;20105;-62
2022/09/26 12:49:55;;;;;;;21.80;6.10;;;;;;;12.69;100.00;100353.13;5112146;28;20052;-61
2022/09/26 12:53:11;;;;;;;22.35;6.50;;;;;;;12.70;100.00;100352.22;5112775;28;20186;-61
2022/09/26 12:56:05;;;;;;;15.45;6.32;;;;;;;12.65;100.00;100343.59;5113568;28;20044;-61
2022/09/26 12:58:56;;;;;;;23.48;6.60;;;;;;;12.70;100.00;100344.34;5112285;28;20363;-61
2022/09/26 13:02:23;;;;;;;17.58;6.72;;;;;;;12.70;100.00;100349.59;5114651;28;20101;-61
2022/09/26 13:05:36;;;;;;;21.25;6.45;;;;;;;12.67;100.00;100349.69;5087664;28;20083;-61
2022/09/26 13:08:18;;;;;;;17.20;6.35;;;;;;;12.62;100.00;100343.69;5110507;28;20052;-62
2022/09/26 13:11:21;;;;;;;18.67;7.07;;;;;;;12.65;100.00;100348.84;5113410;28;20103;-62
2022/09/26 13:14:33;;;;;;;32.40;7.80;;;;;;;12.67;100.00;100352.31;5113850;28;20267;-61
2022/09/26 13:17:21;;;;;;;13.73;6.47;;;;;;;12.61;100.00;100349.84;5113303;28;20044;-60
2022/09/26 13:20:26;;;;;;;23.73;6.93;;;;;;;12.60;100.00;100353.34;5083103;28;20060;-61
2022/09/26 13:23:18;;;;;;;25.42;8.52;;;;;;;12.56;100.00;100343.84;5088328;28;20315;-61
2022/09/26 13:25:59;;;;;;;20.27;7.00;;;;;;;12.59;100.00;100354.25;5113399;28;20040;-61
2022/09/26 13:29:07;;;;;;;24.88;7.28;;;;;;;12.58;100.00;100352.50;5112418;28;20052;-61
2022/09/26 13:35:20;;;;;;;14.07;6.03;;;;;;;12.60;100.00;100340.22;5032470;28;20125;-61
2022/09/26 13:38:33;;;;;;;17.23;6.85;;;;;;;12.65;100.00;100338.38;5031190;28;20126;-62
2022/09/26 13:41:36;;;;;;;14.80;6.35;;;;;;;12.66;100.00;100335.72;5030167;28;20262;-62
2022/09/26 13:47:53;;;;;;;24.27;7.05;;;;;;;12.75;100.00;100329.38;5033043;28;20049;-61
2022/09/26 13:50:44;;;;;;;20.33;7.10;;;;;;;12.81;100.00;100334.50;5032030;28;20092;-62
2022/09/26 13:53:44;;;;;;;24.02;7.00;;;;;;;12.83;100.00;100337.94;5006317;28;20058;-61
2022/09/26 14:03:28;;;;;;;24.77;7.93;;;;;;;12.90;100.00;100329.03;5079417;28;20119;-61
2022/09/26 14:06:37;;;;;;;22.77;8.20;;;;;;;12.94;100.00;100328.03;5113404;28;20083;-61
2022/09/26 14:09:40;;;;;;;20.20;7.47;;;;;;;13.00;100.00;100320.91;5111709;28;20118;-62
2022/09/26 14:12:58;;;;;;;20.13;7.18;;;;;;;13.05;100.00;100327.75;5113776;28;20051;-62
2022/09/26 14:16:05;;;;;;;21.15;8.23;;;;;;;13.11;100.00;100332.00;5062471;28;20041;-61
2022/09/26 14:19:15;;;;;;;23.08;8.90;;;;;;;13.15;100.00;100333.63;5112131;28;20344;-61
2022/09/26 14:22:15;;;;;;;30.20;9.10;;;;;;;13.17;100.00;100331.84;5107815;28;20111;-62
2022/09/26 14:24:57;;;;;;;40.95;10.60;;;;;;;13.17;100.00;100326.59;5112258;28;20051;-62
2022/09/26 14:28:21;;;;;;;25.58;8.38;;;;;;;13.23;100.00;100342.19;5111958;28;20066;-61
2022/09/26 14:31:40;;;;;;;22.17;7.50;;;;;;;13.23;100.00;100336.94;5113550;28;20055;-61
2022/09/26 14:37:30;;;;;;;29.48;8.93;;;;;;;13.23;100.00;100331.69;5111971;28;20043;-61
2022/09/26 14:40:32;;;;;;;33.38;7.78;;;;;;;13.22;100.00;100316.81;5110794;28;20097;-62
2022/09/26 14:43:30;;;;;;;84.47;11.45;;;;;;;13.26;100.00;100323.72;5110418;28;20044;-61
2022/09/26 14:46:28;;;;;;;66.47;9.02;;;;;;;13.24;100.00;100311.56;5063465;28;20071;-61
2022/09/26 14:49:19;;;;;;;61.40;8.82;;;;;;;13.27;100.00;100312.34;5112290;28;20051;-61